Terminal Aerodrome Forecast
Issued by NWS

Home | Current Version | Previous Version | Text Only | Print | Product List | Glossary On
Versions: 1 2 3 4 5 6 7 8 9 10 11 12 13 14 15 16 17
000
FTUS45 KABQ 201100
TAFAEG
TAF
KAEG 201140Z 2012/2112 35005KT P6SM BKN200
     FM201700 29006KT P6SM FEW150
     FM210400 31005KT P6SM SCT080=

USA.gov is the U.S. government's official web portal to all federal, state and local government web resources and services.